Time;durP1;ratioP1;P1;durP2;ratioP2;P2;SDS_P1;SDS_P2;PMS_P1;PMS_P2;Temp;Humidity;BMP_temperature;BMP_pressure;BME280_temperature;BME280_humidity;BME280_pressure;Samples;Min_cycle;Max_cycle;Signal;HPM_P1;HPM_P2
2022/04/30 00:00:29;;;;;;;5.97;2.50;;;;;;;7.61;69.97;101298.94;5055026;28;20048;-77
2022/04/30 00:02:57;;;;;;;4.90;2.22;;;;;;;7.60;69.47;101300.78;5053742;28;20363;-77
2022/04/30 00:05:23;;;;;;;6.78;2.45;;;;;;;7.58;69.74;101304.63;5052943;28;20052;-77
2022/04/30 00:07:48;;;;;;;6.05;2.55;;;;;;;7.46;69.85;101296.06;5058325;28;20379;-77
2022/04/30 00:10:13;;;;;;;8.10;2.83;;;;;;;7.52;69.50;101289.22;5058321;28;20033;-78
2022/04/30 00:12:39;;;;;;;5.40;2.23;;;;;;;7.51;69.38;101287.53;5058211;28;20033;-77
2022/04/30 00:15:05;;;;;;;7.10;2.07;;;;;;;7.53;69.65;101290.84;5060067;28;20033;-77
2022/04/30 00:17:30;;;;;;;5.53;2.17;;;;;;;7.45;70.21;101289.00;5059807;28;20178;-77
2022/04/30 00:19:56;;;;;;;5.53;2.22;;;;;;;7.43;69.79;101282.13;5059039;28;20041;-77
2022/04/30 00:22:21;;;;;;;5.47;2.30;;;;;;;7.46;70.09;101287.16;5058213;28;20025;-78
2022/04/30 00:24:47;;;;;;;5.53;2.27;;;;;;;7.47;69.59;101287.00;5057504;28;20029;-78
2022/04/30 00:27:14;;;;;;;6.35;2.33;;;;;;;7.36;70.34;101300.69;5057862;28;20116;-78
2022/04/30 00:29:39;;;;;;;5.30;2.13;;;;;;;7.32;70.59;101289.50;5058218;28;20037;-77
2022/04/30 00:32:05;;;;;;;6.53;2.20;;;;;;;7.36;70.52;101278.41;5057401;28;20040;-78
2022/04/30 00:34:31;;;;;;;5.35;2.08;;;;;;;7.37;70.16;101286.28;5058094;28;20029;-78
2022/04/30 00:36:57;;;;;;;;;;;;;;;7.31;70.88;101273.56;5058175;28;20033;-77
2022/04/30 00:39:23;;;;;;;7.00;2.07;;;;;;;7.30;70.90;101279.94;5056550;28;19969;-78
2022/04/30 00:41:48;;;;;;;7.97;2.50;;;;;;;7.29;70.99;101270.19;5057456;28;20056;-78
2022/04/30 00:44:18;;;;;;;4.85;2.00;;;;;;;7.22;70.84;101267.31;5057046;28;20268;-78
2022/04/30 00:46:44;;;;;;;4.75;2.13;;;;;;;7.15;71.40;101260.09;5056850;28;20064;-78
2022/04/30 00:49:10;;;;;;;;;;;;;;;7.14;71.24;101267.31;5057275;28;20029;-77
2022/04/30 00:51:38;;;;;;;12.90;2.58;;;;;;;7.11;71.71;101272.16;5057529;28;19968;-77
2022/04/30 00:54:05;;;;;;;5.57;2.25;;;;;;;7.06;71.54;101267.25;5056867;28;20393;-77
2022/04/30 00:56:38;;;;;;;7.15;2.08;;;;;;;7.11;71.59;101267.63;5056909;28;20043;-78
2022/04/30 00:59:05;;;;;;;4.82;2.45;;;;;;;7.15;71.90;101271.66;5055710;28;20436;-77
2022/04/30 01:01:35;;;;;;;5.15;2.35;;;;;;;7.25;71.30;101266.16;5056230;28;20057;-77
2022/04/30 01:04:01;;;;;;;5.70;2.50;;;;;;;7.12;71.14;101271.16;5061021;28;20052;-77
2022/04/30 01:06:47;;;;;;;5.15;1.63;;;;;;;7.00;71.48;101275.09;5076655;28;20074;-77
2022/04/30 01:09:12;;;;;;;5.57;1.83;;;;;;;6.99;71.54;101276.94;5075480;28;20032;-77
2022/04/30 01:11:38;;;;;;;5.22;2.17;;;;;;;6.94;71.97;101274.75;5075798;28;20024;-78
2022/04/30 01:14:04;;;;;;;5.63;2.13;;;;;;;6.89;72.01;101271.72;5075444;28;20029;-77
2022/04/30 01:16:30;;;;;;;6.13;1.80;;;;;;;6.91;72.14;101272.41;5075653;28;20052;-77
2022/04/30 01:18:56;;;;;;;5.78;2.33;;;;;;;6.90;71.98;101267.19;5075399;28;20060;-77
2022/04/30 01:21:24;;;;;;;4.00;1.75;;;;;;;6.87;72.01;101263.00;5057705;28;20528;-77
2022/04/30 01:23:49;;;;;;;4.82;1.98;;;;;;;6.87;71.89;101271.03;5075532;28;20035;-77
2022/04/30 01:26:17;;;;;;;4.13;1.95;;;;;;;6.88;71.57;101266.50;5075243;28;20029;-78
2022/04/30 01:28:43;;;;;;;4.38;1.95;;;;;;;6.87;72.02;101267.50;5075042;28;20467;-77
2022/04/30 01:37:22;;;;;;;7.18;1.70;;;;;;;6.82;72.33;101273.34;5075688;28;20039;-77
2022/04/30 01:39:33;;;;;;;6.25;1.60;;;;;;;6.89;71.80;101252.97;5075246;28;20447;-77
2022/04/30 01:42:12;;;;;;;4.22;1.83;;;;;;;6.82;71.91;101251.91;5075599;28;20052;-77
2022/04/30 01:44:40;;;;;;;4.28;1.80;;;;;;;6.84;71.50;101254.44;5074889;28;20029;-77
2022/04/30 01:47:07;;;;;;;3.67;1.50;;;;;;;6.87;72.42;101243.41;5074943;28;20448;-77
2022/04/30 01:49:32;;;;;;;4.85;1.73;;;;;;;6.84;71.83;101241.03;5074728;28;20029;-77
2022/04/30 01:51:58;;;;;;;6.03;1.90;;;;;;;6.67;72.54;101244.63;5075513;28;20028;-77
2022/04/30 01:54:23;;;;;;;6.57;2.13;;;;;;;6.69;72.49;101243.47;5076222;28;20486;-77
2022/04/30 01:56:48;;;;;;;6.73;2.57;;;;;;;6.63;72.56;101239.59;5076473;28;20039;-77
2022/04/30 01:59:13;;;;;;;6.10;2.60;;;;;;;6.66;73.15;101237.59;5074829;28;20509;-77
2022/04/30 02:01:42;;;;;;;6.33;2.20;;;;;;;6.77;72.83;101240.03;5074627;28;20103;-77
2022/04/30 02:04:08;;;;;;;5.75;1.60;;;;;;;6.58;73.70;101241.94;5074892;28;20049;-77
2022/04/30 02:06:33;;;;;;;7.25;1.75;;;;;;;6.57;73.37;101248.28;5074650;28;20035;-76
2022/04/30 02:08:59;;;;;;;5.13;1.70;;;;;;;6.55;73.86;101233.38;5074663;28;20123;-77
2022/04/30 02:11:25;;;;;;;4.68;1.65;;;;;;;6.48;73.56;101238.50;5074677;28;20029;-77
2022/04/30 02:13:53;;;;;;;4.45;2.13;;;;;;;6.51;74.10;101240.88;5073995;28;20383;-77
2022/04/30 02:16:23;;;;;;;4.15;1.77;;;;;;;6.48;73.96;101238.50;5074059;28;20070;-77
2022/04/30 02:18:51;;;;;;;4.80;2.03;;;;;;;6.48;74.25;101226.97;5074480;28;20024;-77
2022/04/30 02:21:21;;;;;;;4.63;1.98;;;;;;;6.46;73.87;101229.78;5073993;28;20494;-78
2022/04/30 02:23:51;;;;;;;4.28;1.70;;;;;;;6.44;74.43;101226.47;5074288;28;20028;-77
2022/04/30 02:26:17;;;;;;;6.72;2.20;;;;;;;6.40;75.01;101225.09;5074514;28;20025;-77
2022/04/30 02:28:42;;;;;;;6.32;2.78;;;;;;;6.40;74.51;101226.94;5073285;28;20032;-77
2022/04/30 02:31:21;;;;;;;6.10;1.88;;;;;;;6.36;75.49;101220.22;5073953;28;20077;-77
2022/04/30 02:33:46;;;;;;;4.28;1.83;;;;;;;6.28;75.58;101210.28;5074097;28;20052;-77
2022/04/30 02:36:13;;;;;;;4.77;2.10;;;;;;;6.29;75.85;101211.97;5074077;28;20032;-77
2022/04/30 02:38:39;;;;;;;6.32;2.00;;;;;;;6.29;75.93;101217.31;5074693;28;20021;-77
2022/04/30 02:41:04;;;;;;;5.35;2.35;;;;;;;6.32;76.37;101213.47;5056208;28;20032;-77
2022/04/30 02:43:30;;;;;;;7.03;2.50;;;;;;;6.14;77.03;101217.06;5073583;28;20277;-77
2022/04/30 02:45:56;;;;;;;;;;;;;;;6.12;77.22;101218.19;5075090;28;20028;-77
2022/04/30 02:48:22;;;;;;;5.78;2.40;;;;;;;6.05;77.10;101218.00;5074303;28;20271;-77
2022/04/30 02:50:48;;;;;;;5.90;2.58;;;;;;;6.04;77.32;101212.81;5074288;28;20524;-77
2022/04/30 02:53:13;;;;;;;5.00;2.20;;;;;;;5.98;77.38;101210.75;5074764;28;20032;-77
2022/04/30 02:55:39;;;;;;;6.07;2.93;;;;;;;6.03;78.07;101200.44;5074488;28;20456;-77
2022/04/30 03:00:51;;;;;;;5.50;2.28;;;;;;;5.99;77.98;101207.91;5074933;28;20749;-77
2022/04/30 03:03:17;;;;;;;6.38;2.35;;;;;;;5.92;78.18;101204.19;5074006;28;20029;-77
2022/04/30 03:05:44;;;;;;;6.03;2.47;;;;;;;5.83;78.40;101213.13;5074417;28;20059;-77
2022/04/30 03:08:12;;;;;;;6.03;2.08;;;;;;;5.88;78.19;101213.50;5057337;28;20029;-77
2022/04/30 03:10:44;;;;;;;8.82;2.40;;;;;;;5.84;78.61;101206.78;5073730;28;20035;-77
2022/04/30 03:13:10;;;;;;;6.88;2.72;;;;;;;5.93;78.05;101205.84;5075136;28;20036;-77
2022/04/30 03:15:38;;;;;;;6.65;2.40;;;;;;;5.84;78.58;101212.13;5074598;28;20090;-77
2022/04/30 03:23:23;;;;;;;9.00;2.40;;;;;;;5.82;78.98;101206.09;5075001;28;20037;-77
2022/04/30 03:25:49;;;;;;;6.40;3.13;;;;;;;5.75;79.17;101207.69;5074101;28;20082;-77
2022/04/30 03:28:14;;;;;;;8.03;2.13;;;;;;;5.73;79.43;101205.16;5074765;28;20086;-77
2022/04/30 03:30:39;;;;;;;6.57;2.13;;;;;;;5.71;79.16;101206.34;5074946;28;20079;-78
2022/04/30 03:33:08;;;;;;;8.33;2.60;;;;;;;5.63;79.84;101201.75;5073990;28;20031;-78
2022/04/30 03:35:34;;;;;;;6.50;2.85;;;;;;;5.61;80.25;101202.88;5073563;28;20028;-77
2022/04/30 03:37:59;;;;;;;7.15;2.28;;;;;;;5.56;80.15;101200.66;5073239;28;20505;-77
2022/04/30 03:40:24;;;;;;;8.13;2.33;;;;;;;5.53;80.31;101198.31;5056610;28;20025;-77
2022/04/30 03:42:50;;;;;;;7.17;2.70;;;;;;;5.57;80.49;101205.03;5059019;28;20463;-77
2022/04/30 03:45:15;;;;;;;5.53;2.30;;;;;;;5.53;80.64;101198.31;5077037;28;20707;-77
2022/04/30 03:47:41;;;;;;;6.23;2.07;;;;;;;5.58;79.94;101202.19;5077075;28;20024;-77
2022/04/30 03:50:07;;;;;;;5.20;2.20;;;;;;;5.52;80.61;101207.34;5077214;28;20609;-77
2022/04/30 03:52:33;;;;;;;6.20;2.60;;;;;;;5.54;80.87;101200.84;5077012;28;20042;-77
2022/04/30 03:54:58;;;;;;;6.25;2.35;;;;;;;5.46;80.76;101195.41;5076980;28;20375;-77
2022/04/30 03:57:25;;;;;;;7.03;2.20;;;;;;;5.43;80.85;101198.38;5077698;28;20596;-77
2022/04/30 03:59:51;;;;;;;7.13;2.65;;;;;;;5.39;81.32;101199.69;5077198;28;20033;-77
2022/04/30 04:02:18;;;;;;;11.13;2.78;;;;;;;5.42;80.90;101199.38;5076879;28;20078;-77
2022/04/30 04:04:44;;;;;;;8.82;2.35;;;;;;;5.41;80.75;101202.19;5077416;28;20084;-77
2022/04/30 04:07:09;;;;;;;5.85;2.78;;;;;;;5.39;81.20;101190.81;5077988;28;20090;-77
2022/04/30 04:09:34;;;;;;;6.23;2.63;;;;;;;5.45;81.66;101203.59;5076953;28;20467;-77
2022/04/30 04:12:00;;;;;;;7.97;2.37;;;;;;;5.39;80.96;101201.50;5076381;28;20086;-77
2022/04/30 04:19:53;;;;;;;7.28;2.92;;;;;;;5.31;82.20;101214.81;5078343;28;20036;-77
2022/04/30 04:22:18;;;;;;;6.33;2.37;;;;;;;5.28;82.21;101207.94;5078200;28;20033;-77
2022/04/30 04:27:29;;;;;;;6.97;2.60;;;;;;;5.27;82.19;101211.59;5078027;28;20043;-78
2022/04/30 04:29:55;;;;;;;7.13;2.58;;;;;;;5.33;82.22;101210.16;5076346;28;20467;-77
2022/04/30 04:32:21;;;;;;;10.27;2.80;;;;;;;5.23;82.03;101205.69;5058158;28;20395;-77
2022/04/30 04:34:48;;;;;;;6.72;2.20;;;;;;;5.21;82.56;101207.69;5075926;28;20025;-76
2022/04/30 04:37:14;;;;;;;4.72;2.20;;;;;;;5.26;82.06;101215.25;5076155;28;20033;-76
2022/04/30 04:39:39;;;;;;;5.70;2.53;;;;;;;5.30;82.58;101215.78;5058128;28;20134;-76
2022/04/30 04:42:06;;;;;;;5.73;2.60;;;;;;;5.28;82.05;101212.44;5076162;28;20025;-76
2022/04/30 04:44:32;;;;;;;7.30;2.38;;;;;;;5.26;82.16;101212.56;5075674;28;20422;-77
2022/04/30 04:46:57;;;;;;;6.53;2.63;;;;;;;5.26;82.68;101222.44;5076228;28;20066;-77
2022/04/30 04:49:23;;;;;;;6.93;2.40;;;;;;;5.35;82.33;101219.72;5075782;28;20278;-77
2022/04/30 04:51:48;;;;;;;8.67;2.50;;;;;;;5.31;82.73;101226.34;5076035;28;20052;-76
2022/04/30 04:54:13;;;;;;;6.90;3.07;;;;;;;5.29;82.78;101219.47;5077303;28;20344;-77
2022/04/30 04:56:56;;;;;;;8.25;2.78;;;;;;;5.30;82.59;101219.31;5174954;27;20347;-75
2022/04/30 04:59:22;;;;;;;6.03;2.65;;;;;;;5.36;82.26;101220.53;5174341;27;20038;-77
2022/04/30 05:01:48;;;;;;;5.20;2.10;;;;;;;5.29;82.21;101219.47;5173293;27;20535;-77
2022/04/30 05:04:14;;;;;;;7.07;2.90;;;;;;;5.29;82.67;101222.13;5173971;27;20083;-77
2022/04/30 05:06:39;;;;;;;7.47;2.75;;;;;;;5.38;82.56;101224.72;5173097;27;20114;-77
2022/04/30 05:09:05;;;;;;;7.05;2.38;;;;;;;5.30;82.73;101229.16;5172919;27;20071;-77
2022/04/30 05:11:30;;;;;;;11.20;2.80;;;;;;;5.40;82.40;101233.44;5172765;27;20083;-76
2022/04/30 05:13:55;;;;;;;8.00;3.33;;;;;;;5.37;82.17;101236.44;5172567;27;20496;-77
2022/04/30 05:16:21;;;;;;;8.23;2.90;;;;;;;5.46;82.02;101232.84;5172421;27;20030;-77
2022/04/30 05:18:46;;;;;;;6.83;2.83;;;;;;;5.51;82.16;101235.06;5172642;27;20109;-76
2022/04/30 05:21:11;;;;;;;8.30;2.50;;;;;;;5.42;82.07;101236.78;5154049;27;20375;-76
2022/04/30 05:23:37;;;;;;;6.78;2.78;;;;;;;5.58;81.82;101236.94;5172896;27;20069;-82
2022/04/30 05:26:02;;;;;;;9.27;3.27;;;;;;;5.57;81.90;101240.63;5154633;27;20035;-77
2022/04/30 05:28:28;;;;;;;7.90;2.20;;;;;;;5.63;81.71;101243.69;5173172;27;20038;-78
2022/04/30 05:30:53;;;;;;;7.20;2.73;;;;;;;5.62;81.43;101242.84;5173193;27;20473;-77
2022/04/30 05:33:18;;;;;;;6.77;2.40;;;;;;;5.63;81.64;101247.19;5173365;27;20022;-77
2022/04/30 05:35:43;;;;;;;8.70;2.97;;;;;;;5.61;81.22;101246.50;5173326;27;20038;-77
2022/04/30 05:38:09;;;;;;;11.03;3.73;;;;;;;5.58;81.35;101242.31;5174109;27;20449;-78
2022/04/30 05:40:34;;;;;;;8.83;3.20;;;;;;;5.66;81.31;101249.56;5173718;27;20026;-78
2022/04/30 05:42:59;;;;;;;7.33;2.83;;;;;;;5.71;81.15;101246.44;5173652;27;20102;-78
2022/04/30 05:45:25;;;;;;;9.80;3.17;;;;;;;5.79;80.97;101252.69;5173881;27;20026;-79
2022/04/30 05:47:50;;;;;;;7.82;3.20;;;;;;;5.80;81.15;101254.38;5173717;27;20150;-78
2022/04/30 05:50:16;;;;;;;10.10;3.13;;;;;;;5.78;81.27;101250.16;5173681;27;20033;-78
2022/04/30 05:52:41;;;;;;;6.40;2.17;;;;;;;5.81;80.66;101257.88;5173588;27;20252;-77
2022/04/30 05:55:07;;;;;;;11.03;4.33;;;;;;;5.80;80.94;101246.34;5155626;27;20065;-78
2022/04/30 05:57:32;;;;;;;5.35;2.63;;;;;;;6.01;80.27;101258.59;5174290;27;20046;-78
2022/04/30 05:59:58;;;;;;;9.50;2.60;;;;;;;6.09;80.48;101253.31;5174485;27;20467;-78
2022/04/30 06:02:23;;;;;;;6.63;2.92;;;;;;;6.23;79.65;101255.44;5174284;27;20085;-79
2022/04/30 06:04:49;;;;;;;5.18;2.42;;;;;;;6.27;79.25;101254.09;5173250;27;20037;-77
2022/04/30 06:07:15;;;;;;;10.30;2.50;;;;;;;6.41;79.45;101255.38;5165147;27;20027;-78
2022/04/30 06:09:40;;;;;;;5.65;2.22;;;;;;;6.57;79.17;101259.00;5159044;27;20453;-78
2022/04/30 06:12:06;;;;;;;15.07;3.03;;;;;;;6.66;78.47;101261.69;5161761;27;20034;-79
2022/04/30 06:14:31;;;;;;;7.25;2.67;;;;;;;6.67;77.74;101256.19;5159003;27;20026;-76
2022/04/30 06:16:58;;;;;;;6.90;2.57;;;;;;;6.75;78.33;101264.28;5158076;27;20050;-77
2022/04/30 06:19:23;;;;;;;6.45;2.30;;;;;;;6.79;78.24;101264.81;5139347;27;20069;-76
2022/04/30 06:21:49;;;;;;;7.15;2.95;;;;;;;6.75;79.27;101263.44;5157837;27;20034;-76
2022/04/30 06:24:15;;;;;;;5.05;2.25;;;;;;;6.68;78.76;101260.56;5157768;27;20392;-76
2022/04/30 06:26:40;;;;;;;4.70;2.25;;;;;;;6.77;78.96;101267.66;5158399;27;20358;-77
2022/04/30 06:29:06;;;;;;;8.40;3.00;;;;;;;6.86;78.48;101269.34;5139561;27;20030;-76
2022/04/30 06:31:32;;;;;;;5.63;2.47;;;;;;;6.89;78.00;101261.00;5157367;27;20033;-77
2022/04/30 06:33:57;;;;;;;8.75;2.67;;;;;;;7.04;77.43;101268.41;5157578;27;20027;-77
2022/04/30 06:36:22;;;;;;;5.27;2.40;;;;;;;7.53;76.28;101261.34;5157578;27;20059;-77
2022/04/30 06:38:48;;;;;;;15.73;2.90;;;;;;;7.90;75.21;101260.91;5139988;27;20038;-75
2022/04/30 06:41:14;;;;;;;7.70;3.55;;;;;;;8.52;71.85;101259.41;5156900;27;20034;-77
2022/04/30 06:43:52;;;;;;;8.57;2.63;;;;;;;9.36;69.21;101255.19;5157150;27;20027;-76
2022/04/30 06:46:18;;;;;;;5.82;2.08;;;;;;;9.62;66.97;101258.41;5156656;27;20035;-76
2022/04/30 06:48:46;;;;;;;5.70;2.33;;;;;;;8.73;69.11;101263.38;5157055;27;20049;-77
2022/04/30 06:51:12;;;;;;;5.70;2.22;;;;;;;8.60;70.34;101262.03;5157370;27;20372;-77
2022/04/30 06:59:10;;;;;;;4.63;2.22;;;;;;;8.26;70.35;101251.50;5158302;27;20041;-76
2022/04/30 07:01:52;;;;;;;5.05;2.22;;;;;;;8.21;70.29;101253.88;5158000;27;20086;-77
2022/04/30 07:04:18;;;;;;;4.95;2.08;;;;;;;8.13;70.70;101251.19;5157776;27;20499;-77
2022/04/30 07:06:47;;;;;;;6.03;2.60;;;;;;;7.90;71.92;101251.00;5139901;27;20131;-77
2022/04/30 07:09:13;;;;;;;7.20;2.58;;;;;;;7.66;72.58;101259.91;5158512;27;20476;-77
2022/04/30 07:11:39;;;;;;;6.88;1.90;;;;;;;7.83;71.65;101257.22;5158651;27;20031;-77
2022/04/30 07:14:04;;;;;;;5.60;1.80;;;;;;;7.83;70.77;101252.72;5158147;27;20135;-77
2022/04/30 07:16:29;;;;;;;7.33;2.20;;;;;;;7.61;71.50;101248.81;5157798;27;20027;-77
2022/04/30 07:18:55;;;;;;;8.30;2.57;;;;;;;7.62;71.56;101253.19;5156373;27;20076;-77
2022/04/30 07:21:20;;;;;;;7.03;2.30;;;;;;;7.69;70.54;101258.72;5156519;27;20254;-77
2022/04/30 07:23:45;;;;;;;5.23;1.90;;;;;;;7.80;70.23;101253.03;5156749;27;20023;-74
2022/04/30 07:26:11;;;;;;;4.73;2.00;;;;;;;7.74;69.91;101256.38;5156323;27;20260;-75
2022/04/30 07:28:36;;;;;;;6.00;2.60;;;;;;;7.53;71.13;101253.31;5156381;27;20492;-75
2022/04/30 07:31:05;;;;;;;9.57;2.43;;;;;;;7.63;71.25;101260.22;5156647;27;20117;-74
2022/04/30 07:33:31;;;;;;;9.05;2.67;;;;;;;7.73;71.59;101257.38;5156731;27;20252;-74
2022/04/30 07:35:57;;;;;;;7.57;2.97;;;;;;;7.94;71.18;101259.56;5156336;27;20453;-74
2022/04/30 07:38:22;;;;;;;9.45;2.55;;;;;;;7.96;70.33;101253.03;5156611;27;20510;-74
2022/04/30 07:40:48;;;;;;;4.33;1.93;;;;;;;8.16;69.54;101266.13;5157463;27;20034;-75
2022/04/30 07:43:13;;;;;;;4.22;1.88;;;;;;;8.46;67.22;101262.75;5138394;27;20029;-75
2022/04/30 07:46:22;;;;;;;7.63;2.63;;;;;;;8.44;64.73;101264.75;5156358;27;20039;-73
2022/04/30 07:48:52;;;;;;;4.72;1.88;;;;;;;8.68;64.93;101262.03;5051791;28;20443;-79
2022/04/30 07:51:34;;;;;;;4.43;1.75;;;;;;;8.85;63.27;101259.28;5051885;28;20047;-75
2022/04/30 07:54:02;;;;;;;7.95;2.05;;;;;;;9.04;61.68;101257.03;5118108;27;20087;-73
2022/04/30 07:56:27;;;;;;;5.05;1.33;;;;;;;9.27;61.03;101248.19;5156169;27;20043;-74
2022/04/30 07:58:52;;;;;;;6.40;1.87;;;;;;;9.40;62.78;101246.59;5138201;27;20065;-75
2022/04/30 08:01:18;;;;;;;6.67;2.07;;;;;;;9.64;62.71;101244.78;5156167;27;20332;-74
2022/04/30 08:03:44;;;;;;;5.03;1.70;;;;;;;9.78;61.59;101244.00;5155822;27;20118;-74
2022/04/30 08:06:15;;;;;;;5.30;1.80;;;;;;;9.71;61.98;101248.41;5155646;27;20015;-74
2022/04/30 08:08:42;;;;;;;5.13;1.63;;;;;;;9.46;61.32;101252.31;5136556;27;20057;-74
2022/04/30 08:11:07;;;;;;;3.17;1.45;;;;;;;9.81;62.24;101242.81;5155210;27;20079;-73
2022/04/30 08:13:33;;;;;;;6.57;1.85;;;;;;;9.99;60.22;101236.09;5156012;27;20034;-73
2022/04/30 08:15:58;;;;;;;6.50;1.92;;;;;;;10.18;58.25;101244.69;5136776;27;20039;-74
2022/04/30 08:18:26;;;;;;;3.87;1.50;;;;;;;9.86;56.88;101251.16;5155880;27;20027;-73
2022/04/30 08:20:51;;;;;;;3.60;1.40;;;;;;;9.81;58.31;101251.72;5155150;27;20462;-74
2022/04/30 08:23:18;;;;;;;4.27;1.43;;;;;;;9.57;58.74;101247.34;5155139;27;20033;-73
2022/04/30 08:25:43;;;;;;;4.75;1.52;;;;;;;9.53;59.15;101248.72;5155173;27;20458;-73
2022/04/30 08:28:09;;;;;;;4.20;1.40;;;;;;;9.68;58.67;101248.78;5155031;27;20137;-73
2022/04/30 08:30:34;;;;;;;4.83;2.13;;;;;;;9.53;58.45;101242.47;5136602;27;20042;-73
2022/04/30 08:32:59;;;;;;;3.13;1.27;;;;;;;9.75;57.37;101250.56;5136879;27;20488;-73
2022/04/30 08:35:25;;;;;;;4.22;1.50;;;;;;;9.78;57.35;101248.56;5154962;27;20026;-73
2022/04/30 08:37:51;;;;;;;4.05;1.50;;;;;;;9.83;56.48;101252.38;5155280;27;20056;-73
2022/04/30 08:40:17;;;;;;;5.07;1.63;;;;;;;9.92;56.03;101255.84;5155249;27;20124;-74
2022/04/30 08:42:43;;;;;;;4.68;1.67;;;;;;;9.93;55.75;101244.88;5136494;27;20608;-72
2022/04/30 08:45:10;;;;;;;4.05;1.52;;;;;;;10.29;55.80;101241.56;5136563;27;20033;-73
2022/04/30 08:47:40;;;;;;;4.07;1.38;;;;;;;10.25;54.65;101242.97;5155420;27;20030;-73
2022/04/30 08:50:09;;;;;;;3.08;1.50;;;;;;;9.89;55.36;101242.72;5155101;27;20468;-73
2022/04/30 08:52:35;;;;;;;4.72;1.85;;;;;;;9.84;55.32;101245.16;5154714;27;20034;-73
2022/04/30 08:55:00;;;;;;;4.07;1.50;;;;;;;9.81;55.42;101249.03;5132379;28;20128;-73
2022/04/30 08:57:25;;;;;;;8.63;1.58;;;;;;;10.10;53.69;101242.91;5134497;28;20033;-73
2022/04/30 08:59:51;;;;;;;4.50;1.67;;;;;;;10.34;53.82;101240.03;5132587;28;20035;-73
2022/04/30 09:02:17;;;;;;;3.78;1.55;;;;;;;10.50;54.95;101230.94;5133926;28;20101;-73
2022/04/30 09:04:45;;;;;;;4.70;1.67;;;;;;;10.67;53.04;101236.97;5134343;28;20031;-73
2022/04/30 09:07:21;;;;;;;4.38;1.80;;;;;;;10.42;52.99;101237.22;5134254;28;20461;-75
2022/04/30 09:09:58;;;;;;;3.95;1.58;;;;;;;10.68;51.69;101228.72;5133638;28;20051;-75
2022/04/30 09:12:25;;;;;;;5.25;1.25;;;;;;;10.88;51.38;101236.22;5133690;28;20115;-74
2022/04/30 09:14:50;;;;;;;3.42;1.55;;;;;;;10.72;51.04;101221.94;5133402;28;20031;-74
2022/04/30 09:17:16;;;;;;;3.90;1.67;;;;;;;10.99;51.13;101224.97;5133610;28;20031;-73
2022/04/30 09:19:59;;;;;;;4.45;1.73;;;;;;;10.87;50.21;101223.78;5133913;28;20035;-74
2022/04/30 09:22:38;;;;;;;6.05;1.35;;;;;;;10.77;50.83;101215.94;5133869;28;20060;-74
2022/04/30 09:25:04;;;;;;;3.92;1.65;;;;;;;10.81;50.05;101211.88;5133555;28;20056;-74
2022/04/30 09:27:31;;;;;;;4.53;1.88;;;;;;;10.81;50.54;101209.16;5133744;28;20035;-73
2022/04/30 09:29:58;;;;;;;5.82;1.35;;;;;;;10.81;50.77;101205.63;5134198;28;20123;-75
2022/04/30 09:32:25;;;;;;;3.83;1.38;;;;;;;11.03;49.02;101219.00;5133883;28;20027;-74
2022/04/30 09:37:42;;;;;;;3.50;1.55;;;;;;;11.03;48.87;101210.09;5133715;28;20042;-75
2022/04/30 09:40:14;;;;;;;3.60;1.15;;;;;;;10.88;49.16;101211.97;5134370;28;20039;-72
2022/04/30 09:42:44;;;;;;;4.38;1.63;;;;;;;10.94;49.07;101213.88;5134379;27;20028;-73
2022/04/30 09:45:22;;;;;;;3.00;1.27;;;;;;;10.96;48.95;101201.91;5137316;27;20386;-72
2022/04/30 09:47:48;;;;;;;3.80;1.50;;;;;;;11.20;48.51;101198.03;5136206;27;20050;-73
2022/04/30 09:55:48;;;;;;;4.45;2.00;;;;;;;12.03;50.05;101193.91;5147657;27;20492;-73
2022/04/30 09:58:20;;;;;;;5.03;2.17;;;;;;;12.05;50.61;101202.63;5157876;27;20035;-73
2022/04/30 10:00:46;;;;;;;4.45;1.95;;;;;;;11.96;49.99;101193.84;5157864;27;20089;-73
2022/04/30 10:03:12;;;;;;;;;;;;;;;11.96;49.13;101201.97;5158403;27;20046;-73
2022/04/30 10:05:40;;;;;;;5.03;1.67;;;;;;;12.02;48.84;101203.84;5158158;27;19911;-74
2022/04/30 10:08:06;;;;;;;3.70;1.40;;;;;;;12.26;49.09;101197.19;5157854;27;20026;-73
2022/04/30 10:10:50;;;;;;;;;;;;;;;12.18;48.13;101190.06;5158118;27;20026;-74
2022/04/30 10:13:24;;;;;;;5.32;1.50;;;;;;;12.49;46.91;101183.44;5139318;27;19911;-74
2022/04/30 10:15:57;;;;;;;3.90;1.45;;;;;;;12.30;46.34;101192.25;5157826;27;20031;-74
2022/04/30 10:18:41;;;;;;;3.50;1.33;;;;;;;12.24;46.77;101187.63;5157317;27;20377;-75
2022/04/30 10:21:19;;;;;;;3.30;1.30;;;;;;;12.50;46.50;101187.81;5139047;27;20030;-74
2022/04/30 10:23:45;;;;;;;3.47;1.80;;;;;;;12.61;45.42;101191.81;5139085;27;20026;-74
2022/04/30 10:26:10;;;;;;;3.08;1.55;;;;;;;12.27;45.72;101184.53;5138752;27;20023;-74
2022/04/30 10:28:36;;;;;;;4.40;1.70;;;;;;;12.41;46.47;101178.16;5157174;27;20086;-74
2022/04/30 10:31:11;;;;;;;4.40;1.60;;;;;;;12.45;45.90;101172.16;5156885;27;20071;-74
2022/04/30 10:33:50;;;;;;;4.68;1.83;;;;;;;12.64;45.77;101177.88;5138668;27;20343;-74
2022/04/30 10:36:18;;;;;;;4.60;1.95;;;;;;;12.63;46.57;101179.75;5138394;27;20453;-73
2022/04/30 10:39:02;;;;;;;3.85;1.60;;;;;;;12.72;44.84;101183.94;5157082;27;20031;-73
2022/04/30 10:41:27;;;;;;;4.15;1.70;;;;;;;12.42;45.29;101179.84;5157039;27;20208;-75
2022/04/30 10:44:01;;;;;;;5.00;1.80;;;;;;;12.31;47.04;101169.59;5157369;27;20124;-76
2022/04/30 10:46:35;;;;;;;5.50;1.90;;;;;;;12.49;46.76;101172.63;5138502;27;20125;-77
2022/04/30 10:49:02;;;;;;;4.10;1.73;;;;;;;12.50;46.98;101168.88;5156776;27;20457;-75
2022/04/30 10:51:38;;;;;;;3.50;1.60;;;;;;;12.31;46.93;101156.91;5157101;27;20457;-76
2022/04/30 10:54:18;;;;;;;3.60;1.65;;;;;;;12.62;46.36;101163.72;5156663;27;20059;-75
2022/04/30 10:56:44;;;;;;;4.25;2.20;;;;;;;12.79;46.21;101157.78;5156118;27;20043;-75
2022/04/30 10:59:10;;;;;;;5.32;2.17;;;;;;;13.13;45.43;101153.31;5156623;27;20027;-74
2022/04/30 11:01:37;;;;;;;4.30;1.90;;;;;;;13.11;45.53;101155.41;5157235;27;20046;-75
2022/04/30 11:04:02;;;;;;;3.75;1.77;;;;;;;13.28;45.11;101145.06;5157631;27;20055;-75
2022/04/30 11:06:32;;;;;;;4.05;1.70;;;;;;;13.30;43.99;101146.53;5158034;27;20129;-75
2022/04/30 11:08:58;;;;;;;5.97;1.95;;;;;;;13.38;42.97;101145.50;5157569;27;20035;-75
2022/04/30 11:11:23;;;;;;;3.40;1.60;;;;;;;13.21;43.97;101147.78;5138505;27;20027;-76
2022/04/30 11:14:09;;;;;;;5.22;1.88;;;;;;;12.91;45.42;101143.66;5157524;27;20027;-74
2022/04/30 11:16:37;;;;;;;5.22;2.10;;;;;;;13.10;45.84;101141.03;5157541;27;20477;-74
2022/04/30 11:19:09;;;;;;;4.15;2.22;;;;;;;12.83;45.46;101144.69;5159347;27;20030;-76
2022/04/30 11:21:39;;;;;;;4.03;2.13;;;;;;;12.68;45.82;101135.91;5158491;27;20023;-74
2022/04/30 11:24:06;;;;;;;4.43;2.15;;;;;;;12.71;46.08;101141.75;5140408;27;20121;-74
2022/04/30 11:26:36;;;;;;;4.13;1.90;;;;;;;13.25;45.74;101130.09;5163103;27;20037;-75
2022/04/30 11:29:05;;;;;;;5.00;2.17;;;;;;;13.33;45.82;101132.59;5160904;27;20038;-75
2022/04/30 11:31:31;;;;;;;5.82;2.63;;;;;;;13.21;44.77;101123.41;5162052;27;20054;-74
2022/04/30 11:34:06;;;;;;;4.13;2.13;;;;;;;13.05;43.85;101121.91;5160025;27;20361;-75
2022/04/30 11:36:41;;;;;;;3.60;1.70;;;;;;;13.19;44.01;101130.91;5158440;27;20027;-75
2022/04/30 11:39:09;;;;;;;5.18;1.75;;;;;;;13.43;42.42;101116.81;5158070;27;20038;-76
2022/04/30 11:41:41;;;;;;;5.13;2.00;;;;;;;13.09;42.88;101112.31;5157752;27;20045;-75
2022/04/30 11:44:11;;;;;;;3.92;1.50;;;;;;;13.57;41.59;101105.97;5157432;27;20071;-76
2022/04/30 11:46:38;;;;;;;2.92;1.30;;;;;;;13.71;42.09;101100.34;5155935;27;20086;-75
2022/04/30 11:49:18;;;;;;;4.03;1.42;;;;;;;14.17;41.23;101099.44;5159369;27;20034;-74
2022/04/30 11:51:44;;;;;;;4.18;1.90;;;;;;;14.07;40.78;101099.88;5156978;27;20026;-75
2022/04/30 11:54:17;;;;;;;2.78;1.17;;;;;;;14.02;41.00;101098.84;5156003;27;20027;-75
2022/04/30 11:56:43;;;;;;;4.90;1.33;;;;;;;14.24;41.60;101092.97;5156331;27;20050;-76
2022/04/30 11:59:10;;;;;;;4.72;1.63;;;;;;;14.11;42.13;101089.47;5156350;27;20318;-75
2022/04/30 12:01:38;;;;;;;5.00;1.83;;;;;;;14.15;42.43;101094.22;5136986;27;20023;-75
2022/04/30 12:04:08;;;;;;;6.25;1.70;;;;;;;14.36;41.99;101095.00;5136623;27;20065;-75
2022/04/30 12:06:34;;;;;;;4.03;1.80;;;;;;;14.16;41.32;101095.06;5155049;27;20023;-75
2022/04/30 12:08:59;;;;;;;4.07;1.50;;;;;;;14.37;41.97;101094.78;5136817;27;20058;-72